createdAt,value
2022-12-12T00:00:00.915Z,1.4
2022-12-12T00:01:04.419Z,1.3
2022-12-12T00:02:01.059Z,1.3
2022-12-12T00:03:00.765Z,1.2
2022-12-12T00:04:01.226Z,1.2
2022-12-12T00:05:00.809Z,1.3
2022-12-12T00:06:00.399Z,1.3
2022-12-12T00:07:01.004Z,1.3
2022-12-12T00:08:00.685Z,1.3
2022-12-12T00:09:01.158Z,1.4
2022-12-12T00:10:00.745Z,1.3
2022-12-12T00:11:00.316Z,1.3
2022-12-12T00:12:00.886Z,1.3
2022-12-12T00:13:00.491Z,1.2
2022-12-12T00:14:01.046Z,1.1
2022-12-12T00:15:00.627Z,1.1
2022-12-12T00:16:06.591Z,1.1
2022-12-12T00:17:00.756Z,1.1
2022-12-12T00:18:00.396Z,1
2022-12-12T00:19:00.914Z,1.1
2022-12-12T00:20:00.499Z,1.2
2022-12-12T00:21:01.073Z,1.2
2022-12-12T00:22:00.711Z,1.1
2022-12-12T00:23:01.271Z,1
2022-12-12T00:24:00.854Z,1.1
2022-12-12T00:25:00.443Z,1
2022-12-12T00:26:01.023Z,1
2022-12-12T00:27:00.603Z,1
2022-12-12T00:28:01.217Z,1.1
2022-12-12T00:29:00.800Z,1
2022-12-12T00:30:00.383Z,1.1
2022-12-12T00:31:01.021Z,1
2022-12-12T00:32:00.620Z,1
2022-12-12T00:33:01.218Z,1.1
2022-12-12T00:34:00.828Z,1.1
2022-12-12T00:35:00.587Z,1
2022-12-12T00:36:00.996Z,1
2022-12-12T00:37:00.577Z,1
2022-12-12T00:38:01.185Z,1
2022-12-12T00:39:00.768Z,1
2022-12-12T00:40:00.341Z,1
2022-12-12T00:41:00.926Z,0.9
2022-12-12T00:42:00.508Z,1
2022-12-12T00:43:01.106Z,0.9
2022-12-12T00:44:00.686Z,1
2022-12-12T00:45:00.310Z,1
2022-12-12T00:46:00.934Z,0.9
2022-12-12T00:47:00.498Z,1
2022-12-12T00:48:01.074Z,1
2022-12-12T00:49:00.673Z,1
2022-12-12T00:50:01.268Z,0.9
2022-12-12T00:51:00.850Z,0.9
2022-12-12T00:52:00.432Z,1
2022-12-12T00:53:01.013Z,1
2022-12-12T00:54:00.624Z,1
2022-12-12T00:55:01.178Z,1
2022-12-12T00:56:00.762Z,1
2022-12-12T00:57:00.344Z,1
2022-12-12T00:58:00.972Z,0.9
2022-12-12T00:59:00.576Z,0.9
2022-12-12T01:00:01.168Z,0.9
2022-12-12T01:01:00.754Z,0.9
2022-12-12T01:02:00.376Z,0.9
2022-12-12T01:03:00.970Z,0.9
2022-12-12T01:04:00.573Z,0.9
2022-12-12T01:05:01.174Z,0.9
2022-12-12T01:06:00.777Z,1
2022-12-12T01:07:00.329Z,0.9
2022-12-12T01:08:00.953Z,0.9
2022-12-12T01:09:00.564Z,0.9
2022-12-12T01:10:01.172Z,0.9
2022-12-12T01:11:00.754Z,0.9
2022-12-12T01:12:00.339Z,0.9
2022-12-12T01:13:00.921Z,0.9
2022-12-12T01:14:00.504Z,0.9
2022-12-12T01:15:01.107Z,0.9
2022-12-12T01:16:00.746Z,0.9
2022-12-12T01:17:00.278Z,0.8
2022-12-12T01:18:00.862Z,0.8
2022-12-12T01:19:00.443Z,0.8
2022-12-12T01:20:01.040Z,0.8
2022-12-12T01:21:00.647Z,0.8
2022-12-12T01:22:01.266Z,0.8
2022-12-12T01:23:00.846Z,0.8
2022-12-12T01:24:00.425Z,0.8
2022-12-12T01:25:01.012Z,0.8
2022-12-12T01:26:00.618Z,0.8
2022-12-12T01:27:01.166Z,0.8
2022-12-12T01:28:00.746Z,0.7
2022-12-12T01:29:00.327Z,0.8
2022-12-12T01:30:00.897Z,0.8
2022-12-12T01:31:00.565Z,0.8
2022-12-12T01:32:01.067Z,1
2022-12-12T01:33:00.658Z,0.8
2022-12-12T01:34:01.242Z,0.8
2022-12-12T01:35:00.830Z,1
2022-12-12T01:36:00.436Z,1
2022-12-12T01:37:01.002Z,0.9
2022-12-12T01:38:00.614Z,0.8
2022-12-12T01:39:01.157Z,0.8
2022-12-12T01:40:00.762Z,0.9
2022-12-12T01:41:00.328Z,0.9
2022-12-12T01:42:00.910Z,0.9
2022-12-12T01:43:00.491Z,0.8
2022-12-12T01:44:01.091Z,0.8
2022-12-12T01:45:00.671Z,0.8
2022-12-12T01:46:01.254Z,0.8
2022-12-12T01:47:00.885Z,0.9
2022-12-12T01:48:04.933Z,0.9
2022-12-12T01:49:01.033Z,1
2022-12-12T01:50:00.633Z,1
2022-12-12T01:51:01.197Z,1.1
2022-12-12T01:52:00.789Z,1.1
2022-12-12T01:53:00.376Z,1.1
2022-12-12T01:54:00.983Z,1
2022-12-12T01:55:00.585Z,1.1
2022-12-12T01:56:01.136Z,1.1
2022-12-12T01:57:00.719Z,1.1
2022-12-12T01:58:00.289Z,1.1
2022-12-12T01:59:00.863Z,1.1
2022-12-12T02:00:00.463Z,1.2
2022-12-12T02:01:01.104Z,1.2
2022-12-12T02:02:00.701Z,1.2
2022-12-12T02:03:00.260Z,1.2
2022-12-12T02:04:00.850Z,1.2
2022-12-12T02:05:00.454Z,1.1
2022-12-12T02:06:01.021Z,1.1
2022-12-12T02:07:00.607Z,1.1
2022-12-12T02:08:01.235Z,1.1
2022-12-12T02:09:00.824Z,1.2
2022-12-12T02:10:00.456Z,1.2
2022-12-12T02:11:00.989Z,1.1
2022-12-12T02:12:00.575Z,1.1
2022-12-12T02:13:01.158Z,1
2022-12-12T02:14:00.742Z,1
2022-12-12T02:15:00.337Z,1.1
2022-12-12T02:16:01.056Z,1.1
2022-12-12T02:17:00.550Z,1.1
2022-12-12T02:18:03.631Z,1.1
2022-12-12T02:19:00.693Z,1.2
2022-12-12T02:20:00.289Z,1.1
2022-12-12T02:21:00.858Z,1.1
2022-12-12T02:22:00.442Z,1
2022-12-12T02:23:01.094Z,1
2022-12-12T02:24:00.675Z,0.9
2022-12-12T02:25:01.255Z,0.9
2022-12-12T02:26:00.884Z,0.9
2022-12-12T02:27:00.485Z,1
2022-12-12T02:28:01.039Z,1
2022-12-12T02:29:00.628Z,1
2022-12-12T02:30:01.195Z,1
2022-12-12T02:31:00.878Z,1
2022-12-12T02:32:00.441Z,1
2022-12-12T02:33:01.027Z,1
2022-12-12T02:34:00.609Z,1
2022-12-12T02:35:01.183Z,1.1
2022-12-12T02:36:00.789Z,1.1
2022-12-12T02:37:00.371Z,1.1
2022-12-12T02:38:00.954Z,1.1
2022-12-12T02:39:00.546Z,1.1
2022-12-12T02:40:01.126Z,1.1
2022-12-12T02:41:00.725Z,1.1
2022-12-12T02:42:00.318Z,1
2022-12-12T02:43:00.853Z,1
2022-12-12T02:44:00.436Z,1
2022-12-12T02:45:01.037Z,1
2022-12-12T02:46:00.642Z,0.9
2022-12-12T02:47:01.242Z,1
2022-12-12T02:48:00.886Z,1.1
2022-12-12T02:49:00.448Z,1
2022-12-12T02:50:01.051Z,1
2022-12-12T02:51:00.636Z,1
2022-12-12T02:52:01.218Z,1.1
2022-12-12T02:53:00.872Z,1
2022-12-12T02:54:00.449Z,1
2022-12-12T02:55:01.034Z,1
2022-12-12T02:56:00.618Z,1
2022-12-12T02:57:01.199Z,1
2022-12-12T02:58:00.833Z,1
2022-12-12T02:59:00.414Z,0.9
2022-12-12T03:00:00.997Z,0.9
2022-12-12T03:01:00.603Z,0.9
2022-12-12T03:02:01.203Z,0.9
2022-12-12T03:03:00.857Z,1
2022-12-12T03:04:00.419Z,1
2022-12-12T03:05:01.003Z,1
2022-12-12T03:06:00.584Z,1
2022-12-12T03:07:01.163Z,1.1
2022-12-12T03:08:00.803Z,1.1
2022-12-12T03:09:00.349Z,1.1
2022-12-12T03:10:00.940Z,1.1
2022-12-12T03:11:00.526Z,1.1
2022-12-12T03:12:01.108Z,1
2022-12-12T03:13:00.692Z,1.1
2022-12-12T03:14:00.315Z,1.1
2022-12-12T03:15:00.847Z,1.2
2022-12-12T03:16:00.458Z,1.1
2022-12-12T03:17:01.015Z,1.2
2022-12-12T03:18:00.598Z,1.1
2022-12-12T03:19:01.202Z,1.2
2022-12-12T03:20:00.783Z,1.1
2022-12-12T03:21:00.373Z,1.1
2022-12-12T03:22:00.954Z,1.1
2022-12-12T03:23:00.539Z,1
2022-12-12T03:24:01.225Z,1
2022-12-12T03:25:00.772Z,0.9
2022-12-12T03:26:00.355Z,0.9
2022-12-12T03:27:00.936Z,1
2022-12-12T03:28:00.518Z,1
2022-12-12T03:29:01.121Z,1
2022-12-12T03:30:00.726Z,1
2022-12-12T03:31:00.280Z,1
2022-12-12T03:32:00.881Z,0.9
2022-12-12T03:33:00.462Z,1
2022-12-12T03:34:01.033Z,0.9
2022-12-12T03:35:00.735Z,0.9
2022-12-12T03:36:01.200Z,1
2022-12-12T03:37:00.803Z,1
2022-12-12T03:38:00.385Z,1
2022-12-12T03:39:00.963Z,1
2022-12-12T03:40:00.571Z,0.9
2022-12-12T03:41:01.128Z,0.9
2022-12-12T03:42:00.709Z,1
2022-12-12T03:43:00.293Z,1
2022-12-12T03:44:00.878Z,1.1
2022-12-12T03:45:00.479Z,1.1
2022-12-12T03:46:01.156Z,1.1
2022-12-12T03:47:00.707Z,0.9
2022-12-12T03:48:00.276Z,1
2022-12-12T03:49:00.861Z,0.9
2022-12-12T03:50:00.501Z,0.9
2022-12-12T03:51:01.039Z,0.9
2022-12-12T03:52:00.622Z,0.9
2022-12-12T03:53:01.207Z,1
2022-12-12T03:54:00.788Z,0.9
2022-12-12T03:55:00.401Z,0.9
2022-12-12T03:56:00.950Z,0.8
2022-12-12T03:57:00.534Z,0.9
2022-12-12T03:58:01.107Z,0.9
2022-12-12T03:59:00.879Z,0.9
2022-12-12T04:00:00.320Z,0.8
2022-12-12T04:01:00.893Z,0.8
2022-12-12T04:02:00.617Z,0.8
2022-12-12T04:03:01.081Z,0.9
2022-12-12T04:04:00.663Z,0.9
2022-12-12T04:05:01.275Z,0.9
2022-12-12T04:06:00.855Z,0.9
2022-12-12T04:07:00.446Z,0.8
2022-12-12T04:08:01.094Z,0.9
2022-12-12T04:09:00.688Z,0.9
2022-12-12T04:10:00.263Z,0.9
2022-12-12T04:11:00.859Z,1
2022-12-12T04:12:00.444Z,1
2022-12-12T04:13:01.025Z,1
2022-12-12T04:14:00.609Z,0.9
2022-12-12T04:15:01.193Z,0.9
2022-12-12T04:16:00.805Z,0.9
2022-12-12T04:17:00.448Z,0.8
2022-12-12T04:18:01.017Z,0.8
2022-12-12T04:19:00.603Z,0.8
2022-12-12T04:20:01.229Z,0.9
2022-12-12T04:21:00.872Z,0.8
2022-12-12T04:22:00.427Z,0.9
2022-12-12T04:23:01.001Z,0.9
2022-12-12T04:24:00.635Z,1
2022-12-12T04:25:01.158Z,1
2022-12-12T04:26:00.759Z,1
2022-12-12T04:27:00.324Z,1.1
2022-12-12T04:28:00.905Z,1.2
2022-12-12T04:29:00.508Z,1.1
2022-12-12T04:30:01.074Z,1
2022-12-12T04:31:00.658Z,0.9
2022-12-12T04:32:01.313Z,0.9
2022-12-12T04:33:00.921Z,0.9
2022-12-12T04:34:00.535Z,0.9
2022-12-12T04:35:01.063Z,0.8
2022-12-12T04:36:00.646Z,0.9
2022-12-12T04:37:01.228Z,1
2022-12-12T04:38:00.832Z,1
2022-12-12T04:39:00.415Z,1
2022-12-12T04:40:00.996Z,1
2022-12-12T04:41:00.579Z,0.9
2022-12-12T04:42:01.164Z,0.9
2022-12-12T04:43:00.830Z,0.9
2022-12-12T04:44:00.385Z,0.9
2022-12-12T04:45:00.966Z,0.9
2022-12-12T04:46:00.603Z,0.9
2022-12-12T04:47:01.132Z,0.9
2022-12-12T04:48:00.732Z,0.8
2022-12-12T04:49:00.286Z,0.9
2022-12-12T04:50:00.892Z,0.8
2022-12-12T04:51:00.476Z,0.9
2022-12-12T04:52:01.051Z,0.9
2022-12-12T04:53:00.654Z,1
2022-12-12T04:54:01.221Z,1
2022-12-12T04:55:00.806Z,1.1
2022-12-12T04:56:00.399Z,1.1
2022-12-12T04:57:00.976Z,1.1
2022-12-12T04:58:00.578Z,1
2022-12-12T04:59:01.144Z,1
2022-12-12T05:00:00.732Z,1
2022-12-12T05:01:00.342Z,0.9
2022-12-12T05:02:00.981Z,0.8
2022-12-12T05:03:00.573Z,0.8
2022-12-12T05:04:01.138Z,0.8
2022-12-12T05:05:00.724Z,0.8
2022-12-12T05:06:00.332Z,0.9
2022-12-12T05:07:00.907Z,0.9
2022-12-12T05:08:00.558Z,0.9
2022-12-12T05:09:01.061Z,0.8
2022-12-12T05:10:00.646Z,0.8
2022-12-12T05:11:01.233Z,0.8
2022-12-12T05:12:00.843Z,0.8
2022-12-12T05:13:00.430Z,0.8
2022-12-12T05:14:01.001Z,0.9
2022-12-12T05:15:00.587Z,0.9
2022-12-12T05:16:01.170Z,0.8
2022-12-12T05:17:00.816Z,0.8
2022-12-12T05:18:00.322Z,0.8
2022-12-12T05:19:00.903Z,0.7
2022-12-12T05:20:00.485Z,0.8
2022-12-12T05:21:01.068Z,0.7
2022-12-12T05:22:00.706Z,0.7
2022-12-12T05:23:01.236Z,0.7
2022-12-12T05:24:00.819Z,0.7
2022-12-12T05:25:00.453Z,0.7
2022-12-12T05:26:00.987Z,0.7
2022-12-12T05:27:00.594Z,0.8
2022-12-12T05:28:01.142Z,0.8
2022-12-12T05:29:05.415Z,0.7
2022-12-12T05:30:00.264Z,0.8
2022-12-12T05:31:00.899Z,0.8
2022-12-12T05:32:00.529Z,0.8
2022-12-12T05:33:01.081Z,0.7
2022-12-12T05:34:00.675Z,0.7
2022-12-12T05:35:01.246Z,0.7
2022-12-12T05:36:00.825Z,0.6
2022-12-12T05:37:00.424Z,0.7
2022-12-12T05:38:01.001Z,0.7
2022-12-12T05:39:00.580Z,0.7
2022-12-12T05:40:01.151Z,0.6
2022-12-12T05:41:00.736Z,0.7
2022-12-12T05:42:00.340Z,0.7
2022-12-12T05:43:00.898Z,0.7
2022-12-12T05:44:00.488Z,0.7
2022-12-12T05:45:01.061Z,0.8
2022-12-12T05:46:00.702Z,0.8
2022-12-12T05:47:01.256Z,0.8
2022-12-12T05:48:00.836Z,0.9
2022-12-12T05:49:00.419Z,1
2022-12-12T05:50:01.000Z,0.9
2022-12-12T05:51:00.582Z,0.9
2022-12-12T05:52:01.177Z,0.8
2022-12-12T05:53:00.778Z,0.7
2022-12-12T05:54:00.399Z,0.7
2022-12-12T05:55:00.957Z,0.7
2022-12-12T05:56:00.547Z,0.6
2022-12-12T05:57:01.145Z,0.7
2022-12-12T05:58:00.733Z,0.6
2022-12-12T05:59:00.319Z,0.7
2022-12-12T06:00:00.911Z,0.8
2022-12-12T06:01:03.307Z,0.8
2022-12-12T06:02:01.096Z,0.8
2022-12-12T06:03:00.738Z,0.8
2022-12-12T06:04:00.374Z,0.8
2022-12-12T06:05:00.915Z,0.8
2022-12-12T06:06:00.501Z,0.8
2022-12-12T06:07:01.075Z,0.9
2022-12-12T06:08:00.717Z,0.9
2022-12-12T06:09:01.269Z,0.9
2022-12-12T06:10:00.876Z,0.9
2022-12-12T06:11:00.465Z,0.9
2022-12-12T06:12:01.040Z,0.9
2022-12-12T06:13:00.624Z,0.9
2022-12-12T06:14:01.221Z,0.9
2022-12-12T06:15:00.828Z,0.8
2022-12-12T06:16:00.457Z,0.6
2022-12-12T06:17:00.996Z,0.6
2022-12-12T06:18:00.575Z,0.6
2022-12-12T06:19:01.179Z,0.6
2022-12-12T06:20:00.758Z,0.6
2022-12-12T06:21:00.330Z,0.7
2022-12-12T06:22:00.906Z,0.7
2022-12-12T06:23:00.498Z,0.6
2022-12-12T06:24:01.087Z,0.7
2022-12-12T06:25:00.690Z,0.6
2022-12-12T06:26:00.320Z,0.6
2022-12-12T06:27:00.816Z,0.7
2022-12-12T06:28:00.405Z,0.7
2022-12-12T06:29:00.986Z,0.6
2022-12-12T06:30:00.584Z,0.6
2022-12-12T06:31:02.036Z,0.6
2022-12-12T06:32:00.335Z,0.7
2022-12-12T06:33:00.919Z,0.7
2022-12-12T06:34:00.529Z,0.7
2022-12-12T06:35:01.083Z,0.6
2022-12-12T06:36:00.667Z,0.5
2022-12-12T06:37:01.252Z,0.5
2022-12-12T06:38:00.834Z,0.5
2022-12-12T06:39:00.447Z,0.5
2022-12-12T06:40:00.997Z,0.5
2022-12-12T06:41:00.635Z,0.6
2022-12-12T06:42:01.185Z,0.6
2022-12-12T06:43:00.767Z,0.7
2022-12-12T06:44:00.369Z,0.6
2022-12-12T06:45:00.950Z,0.6
2022-12-12T06:46:00.568Z,0.6
2022-12-12T06:47:01.114Z,0.5
2022-12-12T06:48:00.698Z,0.4
2022-12-12T06:49:00.310Z,0.4
2022-12-12T06:50:00.868Z,0.4
2022-12-12T06:51:00.446Z,0.5
2022-12-12T06:52:01.019Z,0.6
2022-12-12T06:53:00.598Z,0.7
2022-12-12T06:54:01.203Z,0.7
2022-12-12T06:55:00.786Z,0.8
2022-12-12T06:56:00.377Z,0.8
2022-12-12T06:57:00.950Z,0.8
2022-12-12T06:58:00.562Z,0.7
2022-12-12T06:59:01.128Z,0.8
2022-12-12T07:00:00.713Z,0.8
2022-12-12T07:01:00.283Z,0.7
2022-12-12T07:02:00.977Z,0.7
2022-12-12T07:03:00.623Z,0.7
2022-12-12T07:04:01.092Z,0.7
2022-12-12T07:05:00.676Z,0.7
2022-12-12T07:06:00.292Z,0.7
2022-12-12T07:07:00.847Z,0.7
2022-12-12T07:08:00.469Z,0.8
2022-12-12T07:09:01.004Z,0.6
2022-12-12T07:10:00.589Z,0.5
2022-12-12T07:11:01.203Z,0.5
2022-12-12T07:12:00.782Z,0.5
2022-12-12T07:13:00.359Z,0.4
2022-12-12T07:14:00.959Z,0.4
2022-12-12T07:15:00.540Z,0.3
2022-12-12T07:16:01.168Z,0.4
2022-12-12T07:17:00.792Z,0.4
2022-12-12T07:18:00.347Z,0.5
2022-12-12T07:19:00.929Z,0.5
2022-12-12T07:20:00.509Z,0.5
2022-12-12T07:21:01.093Z,0.6
2022-12-12T07:22:05.885Z,0.6
2022-12-12T07:23:00.263Z,0.6
2022-12-12T07:24:00.849Z,0.6
2022-12-12T07:25:00.438Z,0.6
2022-12-12T07:26:01.067Z,0.5
2022-12-12T07:27:00.668Z,0.5
2022-12-12T07:28:01.232Z,0.5
2022-12-12T07:29:00.812Z,0.5
2022-12-12T07:30:00.418Z,0.5
2022-12-12T07:31:01.017Z,0.5
2022-12-12T07:32:00.642Z,0.6
2022-12-12T07:33:01.212Z,0.5
2022-12-12T07:34:00.815Z,0.5
2022-12-12T07:35:00.396Z,0.4
2022-12-12T07:36:00.979Z,0.3
2022-12-12T07:37:03.032Z,0.2
2022-12-12T07:38:01.121Z,0.3
2022-12-12T07:39:00.719Z,0.2
2022-12-12T07:40:00.288Z,0.1
2022-12-12T07:41:00.860Z,0
2022-12-12T07:42:00.457Z,0.1
2022-12-12T07:43:01.031Z,0.1
2022-12-12T07:44:00.633Z,0
2022-12-12T07:45:01.190Z,0
2022-12-12T07:46:00.848Z,0
2022-12-12T07:47:00.551Z,0
2022-12-12T07:48:01.007Z,0
2022-12-12T07:49:00.616Z,0
2022-12-12T07:50:01.158Z,0
2022-12-12T07:51:00.739Z,0
2022-12-12T07:52:00.322Z,0
2022-12-12T07:53:00.895Z,0.1
2022-12-12T07:54:00.495Z,0
2022-12-12T07:55:01.084Z,0
2022-12-12T07:56:00.691Z,0
2022-12-12T07:57:01.242Z,0
2022-12-12T07:58:00.826Z,0
2022-12-12T07:59:00.410Z,0
2022-12-12T08:00:00.990Z,0
2022-12-12T08:01:00.590Z,0.2
2022-12-12T08:02:01.248Z,0.3
2022-12-12T08:03:00.803Z,0.3
2022-12-12T08:04:01.689Z,0.3
2022-12-12T08:05:00.417Z,0.3
2022-12-12T08:06:01.042Z,0.3
2022-12-12T08:07:05.517Z,0.3
2022-12-12T08:08:00.794Z,0.3
2022-12-12T08:09:00.418Z,0.3
2022-12-12T08:10:00.992Z,0.4
2022-12-12T08:11:00.596Z,0.4
2022-12-12T08:12:01.167Z,0.4
2022-12-12T08:13:00.768Z,0.4
2022-12-12T08:14:00.343Z,0.3
2022-12-12T08:15:00.924Z,0.5
2022-12-12T08:16:00.567Z,0.4
2022-12-12T08:17:01.091Z,0.4
2022-12-12T08:18:00.712Z,0.4
2022-12-12T08:19:01.252Z,0.4
2022-12-12T08:20:00.834Z,0.5
2022-12-12T08:21:00.435Z,0.5
2022-12-12T08:22:00.992Z,0.5
2022-12-12T08:23:00.579Z,0.5
2022-12-12T08:24:01.172Z,0.4
2022-12-12T08:25:00.759Z,0.3
2022-12-12T08:26:00.342Z,0.4
2022-12-12T08:27:01.000Z,0.4
2022-12-12T08:28:00.586Z,0.4
2022-12-12T08:29:01.154Z,0.4
2022-12-12T08:30:00.736Z,0.5
2022-12-12T08:31:00.362Z,0.5
2022-12-12T08:32:00.922Z,0.6
2022-12-12T08:33:04.957Z,0.6
2022-12-12T08:34:01.071Z,0.5
2022-12-12T08:35:00.660Z,0.5
2022-12-12T08:36:01.262Z,0.5
2022-12-12T08:37:00.861Z,0.6
2022-12-12T08:38:00.449Z,0.6
2022-12-12T08:39:01.052Z,0.7
2022-12-12T08:40:00.738Z,0.6
2022-12-12T08:41:01.224Z,0.6
2022-12-12T08:42:00.807Z,0.6
2022-12-12T08:43:00.387Z,0.7
2022-12-12T08:44:00.975Z,0.7
2022-12-12T08:45:00.559Z,0.8
2022-12-12T08:46:01.139Z,0.8
2022-12-12T08:47:00.788Z,0.8
2022-12-12T08:48:00.334Z,0.9
2022-12-12T08:49:00.880Z,0.9
2022-12-12T08:50:00.497Z,1
2022-12-12T08:51:01.047Z,1
2022-12-12T08:52:00.634Z,0.9
2022-12-12T08:53:01.233Z,0.8
2022-12-12T08:54:00.816Z,0.8
2022-12-12T08:55:00.425Z,0.9
2022-12-12T08:56:00.981Z,1
2022-12-12T08:57:00.563Z,1
2022-12-12T08:58:01.148Z,1
2022-12-12T08:59:00.744Z,0.8
2022-12-12T09:00:00.360Z,0.8
2022-12-12T09:01:00.916Z,0.8
2022-12-12T09:02:00.623Z,0.8
2022-12-12T09:03:01.103Z,0.9
2022-12-12T09:04:00.704Z,0.9
2022-12-12T09:05:00.297Z,0.9
2022-12-12T09:06:00.886Z,1
2022-12-12T09:07:04.998Z,0.9
2022-12-12T09:08:01.046Z,0.8
2022-12-12T09:09:00.674Z,0.9
2022-12-12T09:10:00.298Z,1
2022-12-12T09:11:00.836Z,0.9
2022-12-12T09:12:00.419Z,0.9
2022-12-12T09:13:00.995Z,1
2022-12-12T09:14:00.579Z,1
2022-12-12T09:15:01.201Z,1
2022-12-12T09:16:00.827Z,1
2022-12-12T09:17:00.361Z,1.1
2022-12-12T09:18:00.944Z,1
2022-12-12T09:19:00.528Z,1.3
2022-12-12T09:20:01.119Z,1.2
2022-12-12T09:21:00.699Z,1.2
2022-12-12T09:22:00.327Z,1.1
2022-12-12T09:23:00.864Z,1.1
2022-12-12T09:24:00.448Z,1.1
2022-12-12T09:25:01.021Z,1
2022-12-12T09:26:00.604Z,0.9
2022-12-12T09:27:01.215Z,0.9
2022-12-12T09:28:00.849Z,1
2022-12-12T09:29:00.429Z,1
2022-12-12T09:30:01.012Z,1.1
2022-12-12T09:31:00.612Z,1.2
2022-12-12T09:32:01.232Z,1.2
2022-12-12T09:33:00.834Z,1.2
2022-12-12T09:34:00.420Z,1
2022-12-12T09:35:00.991Z,1.1
2022-12-12T09:36:00.572Z,1
2022-12-12T09:37:01.179Z,1.1
2022-12-12T09:38:00.792Z,1.1
2022-12-12T09:39:00.334Z,1.1
2022-12-12T09:40:00.927Z,1.1
2022-12-12T09:41:00.510Z,1
2022-12-12T09:42:01.101Z,0.9
2022-12-12T09:43:00.687Z,0.9
2022-12-12T09:44:00.297Z,1
2022-12-12T09:45:00.859Z,1
2022-12-12T09:46:00.494Z,1.1
2022-12-12T09:47:01.049Z,1.2
2022-12-12T09:48:00.637Z,1.3
2022-12-12T09:49:01.241Z,1.2
2022-12-12T09:50:00.825Z,1.3
2022-12-12T09:51:00.408Z,1.5
2022-12-12T09:52:00.982Z,1.6
2022-12-12T09:53:00.565Z,1.6
2022-12-12T09:54:01.202Z,1.5
2022-12-12T09:55:00.788Z,1.5
2022-12-12T09:56:00.369Z,1.3
2022-12-12T09:57:00.950Z,1.4
2022-12-12T09:58:00.533Z,1.4
2022-12-12T09:59:01.132Z,1.3
2022-12-12T10:00:00.714Z,1.3
2022-12-12T10:01:00.368Z,1.3
2022-12-12T10:02:01.005Z,1.3
2022-12-12T10:03:00.544Z,1.2
2022-12-12T10:04:01.126Z,1.3
2022-12-12T10:05:00.708Z,1.2
2022-12-12T10:06:28.474Z,1.1
2022-12-12T10:07:00.838Z,1.2
2022-12-12T10:08:00.496Z,1.1
2022-12-12T10:09:01.011Z,1.2
2022-12-12T10:10:00.617Z,1.3
2022-12-12T10:11:01.197Z,1.2
2022-12-12T10:12:04.875Z,1.3
2022-12-12T10:13:00.320Z,1.4
2022-12-12T10:14:00.902Z,1.4
2022-12-12T10:15:00.485Z,1.4
2022-12-12T10:16:01.151Z,1.4
2022-12-12T10:17:00.785Z,1.4
2022-12-12T10:18:00.315Z,1.3
2022-12-12T10:19:00.896Z,1.2
2022-12-12T10:20:00.480Z,1.3
2022-12-12T10:21:01.091Z,1.2
2022-12-12T10:22:00.676Z,1.2
2022-12-12T10:23:01.247Z,1.2
2022-12-12T10:24:00.829Z,1.2
2022-12-12T10:25:00.411Z,1.2
2022-12-12T10:26:01.037Z,1.3
2022-12-12T10:27:00.622Z,1.3
2022-12-12T10:28:01.255Z,1.3
2022-12-12T10:29:00.840Z,1.3
2022-12-12T10:30:00.426Z,1.2
2022-12-12T10:31:01.020Z,1.3
2022-12-12T10:32:00.672Z,1.3
2022-12-12T10:33:01.191Z,1.4
2022-12-12T10:34:01.623Z,1.4
2022-12-12T10:35:00.422Z,1.4
2022-12-12T10:36:01.026Z,1.5
2022-12-12T10:37:00.608Z,1.5
2022-12-12T10:38:01.189Z,1.5
2022-12-12T10:39:00.820Z,1.4
2022-12-12T10:40:00.441Z,1.4
2022-12-12T10:41:01.006Z,1.3
2022-12-12T10:42:00.641Z,1.4
2022-12-12T10:43:01.175Z,1.3
2022-12-12T10:44:00.761Z,1.3
2022-12-12T10:45:00.329Z,1.3
2022-12-12T10:46:01.033Z,1.3
2022-12-12T10:47:00.615Z,1.3
2022-12-12T10:48:01.125Z,1.3
2022-12-12T10:49:00.709Z,1.4
2022-12-12T10:50:00.278Z,1.4
2022-12-12T10:51:00.858Z,1.5
2022-12-12T10:52:00.473Z,1.5
2022-12-12T10:53:01.032Z,1.4
2022-12-12T10:54:00.616Z,1.4
2022-12-12T10:55:01.215Z,1.5
2022-12-12T10:56:00.796Z,1.5
2022-12-12T10:57:00.382Z,1.4
2022-12-12T10:58:00.997Z,1.4
2022-12-12T10:59:00.600Z,1.5
2022-12-12T11:00:01.152Z,1.4
2022-12-12T11:01:00.843Z,1.5
2022-12-12T11:02:09.960Z,1.4
2022-12-12T11:03:01.051Z,1.6
2022-12-12T11:04:00.543Z,1.6
2022-12-12T11:05:01.121Z,1.6
2022-12-12T11:06:00.702Z,1.7
2022-12-12T11:07:00.283Z,1.7
2022-12-12T11:08:00.929Z,1.7
2022-12-12T11:09:00.517Z,1.8
2022-12-12T11:10:02.353Z,1.7
2022-12-12T11:11:01.221Z,1.6
2022-12-12T11:12:00.342Z,1.8
2022-12-12T11:13:00.945Z,1.7
2022-12-12T11:14:00.555Z,1.8
2022-12-12T11:15:01.119Z,1.8
2022-12-12T11:16:00.844Z,1.8
2022-12-12T11:17:00.356Z,1.7
2022-12-12T11:18:05.859Z,1.7
2022-12-12T11:19:00.426Z,1.6
2022-12-12T11:20:01.008Z,1.8
2022-12-12T11:21:00.596Z,1.8
2022-12-12T11:22:01.179Z,1.8
2022-12-12T11:23:00.784Z,1.9
2022-12-12T11:24:00.363Z,1.9
2022-12-12T11:25:00.950Z,1.8
2022-12-12T11:26:00.537Z,1.8
2022-12-12T11:27:01.119Z,1.8
2022-12-12T11:28:04.908Z,1.9
2022-12-12T11:29:01.028Z,1.9
2022-12-12T11:30:00.645Z,2
2022-12-12T11:31:01.247Z,2.1
2022-12-12T11:32:00.860Z,2
2022-12-12T11:33:00.471Z,2
2022-12-12T11:34:01.068Z,2.3
2022-12-12T11:35:00.659Z,2.2
2022-12-12T11:36:01.238Z,2.3
2022-12-12T11:37:00.825Z,2.3
2022-12-12T11:38:00.407Z,2.2
2022-12-12T11:39:01.008Z,2.1
2022-12-12T11:40:00.591Z,2.2
2022-12-12T11:41:01.172Z,2.2
2022-12-12T11:42:00.754Z,2.2
2022-12-12T11:43:00.338Z,2.2
2022-12-12T11:44:00.940Z,2.1
2022-12-12T11:45:00.535Z,2.1
2022-12-12T11:46:01.185Z,2
2022-12-12T11:47:00.769Z,2
2022-12-12T11:48:00.353Z,2
2022-12-12T11:49:00.954Z,2
2022-12-12T11:50:01.344Z,2.1
2022-12-12T11:51:01.080Z,2.2
2022-12-12T11:52:00.688Z,2
2022-12-12T11:53:01.256Z,2
2022-12-12T11:54:00.841Z,2
2022-12-12T11:55:00.452Z,2
2022-12-12T11:56:01.005Z,2
2022-12-12T11:57:00.594Z,2
2022-12-12T11:58:03.754Z,1.9
2022-12-12T11:59:00.727Z,2
2022-12-12T12:00:00.403Z,2
2022-12-12T12:01:00.959Z,2.1
2022-12-12T12:02:00.568Z,2
2022-12-12T12:03:01.167Z,1.9
2022-12-12T12:04:00.838Z,2
2022-12-12T12:05:00.378Z,2.2
2022-12-12T12:06:00.940Z,2
2022-12-12T12:07:00.521Z,1.9
2022-12-12T12:08:01.170Z,1.9
2022-12-12T12:09:00.765Z,1.9
2022-12-12T12:10:00.374Z,2
2022-12-12T12:11:00.934Z,2
2022-12-12T12:12:00.521Z,2.2
2022-12-12T12:13:01.104Z,2.1
2022-12-12T12:14:00.690Z,2
2022-12-12T12:15:00.293Z,2.1
2022-12-12T12:16:00.859Z,2.2
2022-12-12T12:17:00.495Z,2.2
2022-12-12T12:18:01.051Z,2.3
2022-12-12T12:19:00.630Z,2.3
2022-12-12T12:20:01.210Z,2.3
2022-12-12T12:21:00.793Z,2.3
2022-12-12T12:22:00.397Z,2.2
2022-12-12T12:23:00.970Z,2.1
2022-12-12T12:24:00.552Z,2.1
2022-12-12T12:25:01.138Z,2.2
2022-12-12T12:26:00.726Z,2.3
2022-12-12T12:27:00.340Z,2.2
2022-12-12T12:28:00.977Z,2.3
2022-12-12T12:29:00.529Z,2.2
2022-12-12T12:30:01.164Z,2.2
2022-12-12T12:31:00.809Z,2.2
2022-12-12T12:32:00.353Z,2.2
2022-12-12T12:33:00.918Z,2.2
2022-12-12T12:34:00.527Z,2.2
2022-12-12T12:35:01.087Z,2.1
2022-12-12T12:36:00.669Z,2.2
2022-12-12T12:37:01.267Z,2.3
2022-12-12T12:38:00.847Z,2.3
2022-12-12T12:39:00.427Z,2.4
2022-12-12T12:40:01.008Z,2.5
2022-12-12T12:41:00.590Z,2.5
2022-12-12T12:42:01.209Z,2.5
2022-12-12T12:43:00.811Z,2.6
2022-12-12T12:44:00.396Z,2.6
2022-12-12T12:45:00.964Z,2.5
2022-12-12T12:46:00.603Z,2.5
2022-12-12T12:47:01.155Z,2.3
2022-12-12T12:48:03.512Z,2.4
2022-12-12T12:49:00.291Z,2.5
2022-12-12T12:50:00.937Z,2.6
2022-12-12T12:51:00.548Z,2.5
2022-12-12T12:52:01.117Z,2.4
2022-12-12T12:53:00.734Z,2.4
2022-12-12T12:54:00.300Z,2.4
2022-12-12T12:55:00.884Z,2.4
2022-12-12T12:56:00.464Z,2.4
2022-12-12T12:57:01.048Z,2.6
2022-12-12T12:58:00.649Z,2.5
2022-12-12T12:59:01.234Z,2.5
2022-12-12T13:00:00.852Z,2.5
2022-12-12T13:01:00.461Z,2.4
2022-12-12T13:02:01.021Z,2.5
2022-12-12T13:03:00.731Z,2.4
2022-12-12T13:04:01.175Z,2.4
2022-12-12T13:05:00.774Z,2.5
2022-12-12T13:06:00.384Z,2.6
2022-12-12T13:07:00.946Z,2.7
2022-12-12T13:08:00.579Z,2.7
2022-12-12T13:09:01.115Z,2.6
2022-12-12T13:10:00.721Z,2.4
2022-12-12T13:11:00.279Z,2.5
2022-12-12T13:12:00.862Z,2.4
2022-12-12T13:13:00.443Z,2.4
2022-12-12T13:14:01.028Z,2.4
2022-12-12T13:15:00.636Z,2.4
2022-12-12T13:16:01.262Z,2.3
2022-12-12T13:17:00.894Z,2.4
2022-12-12T13:18:00.434Z,2.4
2022-12-12T13:19:01.015Z,2.6
2022-12-12T13:20:00.662Z,2.6
2022-12-12T13:21:01.229Z,2.6
2022-12-12T13:22:00.842Z,2.6
2022-12-12T13:23:00.443Z,2.7
2022-12-12T13:24:01.010Z,2.6
2022-12-12T13:25:00.715Z,2.5
2022-12-12T13:26:01.205Z,2.5
2022-12-12T13:27:00.785Z,2.4
2022-12-12T13:28:00.370Z,2.5
2022-12-12T13:29:00.951Z,2.5
2022-12-12T13:30:00.583Z,2.4
2022-12-12T13:31:01.200Z,2.3
2022-12-12T13:32:00.782Z,2.4
2022-12-12T13:33:00.389Z,2.4
2022-12-12T13:34:00.950Z,2.4
2022-12-12T13:35:00.537Z,2.3
2022-12-12T13:36:01.122Z,2.4
2022-12-12T13:37:00.706Z,2.4
2022-12-12T13:38:00.329Z,2.3
2022-12-12T13:39:00.873Z,2.4
2022-12-12T13:40:00.456Z,2.3
2022-12-12T13:41:01.030Z,2.3
2022-12-12T13:42:00.645Z,2.3
2022-12-12T13:43:07.362Z,2.3
2022-12-12T13:44:00.746Z,2.2
2022-12-12T13:45:00.329Z,2.2
2022-12-12T13:46:00.956Z,2.3
2022-12-12T13:47:00.599Z,2.2
2022-12-12T13:48:01.151Z,2.1
2022-12-12T13:49:00.732Z,2.1
2022-12-12T13:50:00.314Z,2
2022-12-12T13:51:00.898Z,2
2022-12-12T13:52:00.500Z,2
2022-12-12T13:53:01.093Z,2.1
2022-12-12T13:54:00.700Z,2.1
2022-12-12T13:55:00.261Z,2
2022-12-12T13:56:00.834Z,2
2022-12-12T13:57:00.436Z,2.1